Time;durP1;ratioP1;P1;durP2;ratioP2;P2;SDS_P1;SDS_P2;PMS_P1;PMS_P2;Temp;Humidity;BMP_temperature;BMP_pressure;BME280_temperature;BME280_humidity;BME280_pressure;Samples;Min_cycle;Max_cycle;Signal;HPM_P1;HPM_P2
2022/04/06 00:00:28;;;;;;;35.52;20.70;;;9.20;99.90;;;;;;4966129;28;10001664;-68
2022/04/06 00:02:54;;;;;;;33.72;19.38;;;9.20;99.90;;;;;;5052093;28;20248;-68
2022/04/06 00:05:19;;;;;;;31.10;19.08;;;9.10;99.90;;;;;;5054818;28;20614;-68
2022/04/06 00:07:45;;;;;;;30.42;17.98;;;9.10;99.90;;;;;;5063143;28;20052;-68
2022/04/06 00:10:12;;;;;;;32.78;18.15;;;9.10;99.90;;;;;;5065985;28;20420;-68
2022/04/06 00:12:38;;;;;;;36.30;16.95;;;9.10;99.90;;;;;;5069243;28;20117;-68
2022/04/06 00:15:07;;;;;;;24.58;15.68;;;9.10;99.90;;;;;;5064089;28;20043;-67
2022/04/06 00:17:33;;;;;;;28.98;15.75;;;9.00;99.90;;;;;;5065293;28;20040;-68
2022/04/06 00:19:58;;;;;;;27.02;15.52;;;9.00;99.90;;;;;;5065108;28;20332;-68
2022/04/06 00:22:24;;;;;;;30.38;15.13;;;9.00;99.90;;;;;;5063468;28;20036;-68
2022/04/06 00:24:51;;;;;;;26.65;15.25;;;9.00;99.90;;;;;;5061753;28;20039;-67
2022/04/06 00:27:17;;;;;;;28.50;15.48;;;9.00;99.90;;;;;;5068249;28;20075;-67
2022/04/06 00:29:43;;;;;;;29.10;15.38;;;9.00;99.90;;;;;;5064109;28;20041;-68
2022/04/06 00:32:09;;;;;;;32.13;16.20;;;9.00;99.90;;;;;;5072139;28;20599;-68
2022/04/06 00:37:18;;;;;;;27.15;16.10;;;8.90;99.90;;;;;;5087717;28;20135;-68
2022/04/06 00:39:44;;;;;;;25.45;15.45;;;8.90;99.90;;;;;;5085550;28;20158;-68
2022/04/06 00:42:10;;;;;;;27.85;15.35;;;8.90;99.90;;;;;;5093891;28;20123;-68
2022/04/06 00:44:36;;;;;;;26.02;15.68;;;8.90;99.90;;;;;;5083990;28;20245;-68
2022/04/06 00:47:04;;;;;;;23.52;15.25;;;8.90;99.90;;;;;;5091997;28;20046;-68
2022/04/06 00:49:30;;;;;;;26.63;15.85;;;8.80;99.90;;;;;;5094455;28;20483;-68
2022/04/06 00:51:56;;;;;;;26.02;15.57;;;8.80;99.90;;;;;;5087677;28;20336;-67
2022/04/06 00:54:23;;;;;;;31.17;15.93;;;8.80;99.90;;;;;;5089098;28;20102;-68
2022/04/06 00:56:49;;;;;;;29.98;16.73;;;8.80;99.90;;;;;;5090520;28;20028;-67
2022/04/06 00:59:16;;;;;;;25.95;15.60;;;8.80;99.90;;;;;;5097889;28;20103;-68
2022/04/06 01:01:44;;;;;;;29.23;16.00;;;8.90;99.90;;;;;;5092784;28;20019;-68
2022/04/06 01:04:10;;;;;;;28.23;14.98;;;8.80;99.90;;;;;;5104081;28;20019;-67
2022/04/06 01:06:35;;;;;;;27.42;15.20;;;8.80;99.90;;;;;;5086256;28;20490;-68
2022/04/06 01:09:02;;;;;;;28.20;15.65;;;8.80;99.90;;;;;;5091486;28;20026;-68
2022/04/06 01:11:28;;;;;;;27.45;15.98;;;8.80;99.90;;;;;;5100179;28;20165;-67
2022/04/06 01:13:55;;;;;;;29.73;15.18;;;8.80;99.90;;;;;;5086476;28;20546;-68
2022/04/06 01:16:21;;;;;;;27.90;15.73;;;8.80;99.90;;;;;;5087747;28;20036;-68
2022/04/06 01:18:46;;;;;;;20.75;13.48;;;8.80;99.90;;;;;;5098157;28;20024;-67
2022/04/06 01:21:12;;;;;;;25.80;14.93;;;8.80;99.90;;;;;;5093002;28;20034;-68
2022/04/06 01:23:41;;;;;;;23.98;15.23;;;8.80;99.90;;;;;;5091607;28;20432;-68
2022/04/06 01:26:07;;;;;;;25.70;14.82;;;8.80;99.90;;;;;;5085720;28;20036;-67
2022/04/06 01:28:33;;;;;;;24.02;15.27;;;8.80;99.90;;;;;;5091219;28;20066;-68
2022/04/06 01:30:58;;;;;;;26.20;15.45;;;8.80;99.90;;;;;;5087489;28;20051;-68
2022/04/06 01:33:24;;;;;;;25.50;16.15;;;8.80;99.90;;;;;;5094886;28;20024;-67
2022/04/06 01:35:49;;;;;;;26.52;17.08;;;8.80;99.90;;;;;;5088107;28;20079;-68
2022/04/06 01:38:15;;;;;;;30.70;17.60;;;8.80;99.90;;;;;;5094778;28;20031;-68
2022/04/06 01:40:41;;;;;;;25.73;17.33;;;8.80;99.90;;;;;;5093611;28;20246;-68
2022/04/06 01:43:06;;;;;;;28.52;17.65;;;8.80;99.90;;;;;;5095004;28;20590;-68
2022/04/06 01:45:32;;;;;;;27.42;17.20;;;8.80;99.90;;;;;;5089592;28;20051;-68
2022/04/06 01:47:57;;;;;;;29.70;18.98;;;8.80;99.90;;;;;;5092423;28;20034;-68
2022/04/06 01:53:07;;;;;;;28.92;18.90;;;8.90;99.90;;;;;;5092778;28;20038;-68
2022/04/06 01:55:33;;;;;;;36.72;19.50;;;8.90;99.90;;;;;;5087664;28;20013;-68
2022/04/06 01:57:59;;;;;;;33.67;19.67;;;8.90;99.90;;;;;;5094193;28;20373;-68
2022/04/06 02:00:26;;;;;;;33.28;19.55;;;8.90;99.90;;;;;;5093670;28;20020;-68
2022/04/06 02:02:53;;;;;;;26.77;17.92;;;8.90;99.90;;;;;;5095198;28;20024;-67
2022/04/06 02:05:20;;;;;;;30.45;18.10;;;8.90;99.90;;;;;;5087650;28;20308;-68
2022/04/06 02:07:50;;;;;;;30.23;17.73;;;8.90;99.90;;;;;;5090414;28;20483;-68
2022/04/06 02:10:17;;;;;;;28.50;17.40;;;8.90;99.90;;;;;;5088266;28;20111;-67
2022/04/06 02:12:44;;;;;;;27.90;17.40;;;8.90;99.90;;;;;;5085422;28;20039;-67
2022/04/06 02:15:12;;;;;;;28.38;16.45;;;8.80;99.90;;;;;;5089139;28;20030;-68
2022/04/06 02:17:38;;;;;;;27.02;16.77;;;8.80;99.90;;;;;;5097842;28;20102;-67
2022/04/06 02:20:04;;;;;;;28.70;15.63;;;8.90;99.90;;;;;;5098206;28;20271;-68
2022/04/06 02:22:30;;;;;;;29.48;15.38;;;8.90;99.90;;;;;;5093782;28;20039;-68
2022/04/06 02:24:56;;;;;;;24.73;13.45;;;8.90;99.90;;;;;;5093936;28;20039;-67
2022/04/06 02:27:22;;;;;;;26.05;13.88;;;8.90;99.90;;;;;;5093480;28;20040;-68
2022/04/06 02:29:47;;;;;;;22.30;12.70;;;8.80;99.90;;;;;;5088400;28;20078;-67
2022/04/06 02:32:13;;;;;;;18.05;11.93;;;8.80;99.90;;;;;;5091493;28;20208;-68
2022/04/06 02:34:40;;;;;;;19.77;11.35;;;8.80;99.90;;;;;;5082374;28;20031;-67
2022/04/06 02:37:07;;;;;;;23.50;11.15;;;8.80;99.90;;;;;;5085149;28;20373;-67
2022/04/06 02:39:33;;;;;;;20.98;11.18;;;8.80;99.90;;;;;;5094455;28;20055;-68
2022/04/06 02:41:59;;;;;;;15.80;9.75;;;8.80;99.90;;;;;;5090389;28;20032;-68
2022/04/06 02:44:25;;;;;;;21.10;9.77;;;8.80;99.90;;;;;;5100047;28;20030;-67
2022/04/06 02:46:51;;;;;;;20.67;10.00;;;8.80;99.90;;;;;;5090114;28;20517;-68
2022/04/06 02:49:17;;;;;;;19.52;9.38;;;8.70;99.90;;;;;;5092643;28;20123;-68
2022/04/06 02:51:43;;;;;;;15.00;8.75;;;8.80;99.90;;;;;;5099392;28;20015;-68
2022/04/06 02:54:09;;;;;;;17.90;9.20;;;8.70;99.90;;;;;;5087980;28;20034;-68
2022/04/06 02:56:35;;;;;;;17.63;8.63;;;8.70;99.90;;;;;;5086114;28;20535;-68
2022/04/06 02:59:01;;;;;;;18.20;8.80;;;8.70;99.90;;;;;;5099696;28;20391;-68
2022/04/06 03:01:27;;;;;;;20.77;8.50;;;8.70;99.90;;;;;;5104432;28;20483;-68
2022/04/06 03:03:53;;;;;;;18.70;8.60;;;8.70;99.90;;;;;;5089518;28;20036;-67
2022/04/06 03:06:19;;;;;;;17.67;9.15;;;8.70;99.90;;;;;;5091618;28;20016;-68
2022/04/06 03:08:45;;;;;;;21.55;9.82;;;8.70;99.90;;;;;;5094968;28;20031;-68
2022/04/06 03:11:11;;;;;;;22.25;9.95;;;8.70;99.90;;;;;;5090413;28;20426;-68
2022/04/06 03:13:36;;;;;;;22.63;10.73;;;8.70;99.90;;;;;;5094858;28;20112;-68
2022/04/06 03:16:02;;;;;;;22.35;9.93;;;8.70;99.90;;;;;;5089831;28;20039;-68
2022/04/06 03:18:28;;;;;;;22.60;9.43;;;8.70;99.90;;;;;;5102729;28;20023;-67
2022/04/06 03:20:53;;;;;;;26.55;10.45;;;8.70;99.90;;;;;;5091182;28;20750;-67
2022/04/06 03:23:19;;;;;;;23.35;10.93;;;8.70;99.90;;;;;;5097540;28;20032;-67
2022/04/06 03:25:45;;;;;;;27.17;10.43;;;8.60;99.90;;;;;;5087406;28;20051;-67
2022/04/06 03:28:11;;;;;;;21.08;9.68;;;8.60;99.90;;;;;;5084962;28;20120;-68
2022/04/06 03:30:37;;;;;;;28.35;10.27;;;8.60;99.90;;;;;;5098224;28;20115;-68
2022/04/06 03:33:03;;;;;;;19.92;9.77;;;8.60;99.90;;;;;;5094195;28;20098;-68
2022/04/06 03:35:29;;;;;;;22.98;10.20;;;8.60;99.90;;;;;;5094710;28;20091;-68
2022/04/06 03:37:54;;;;;;;23.23;10.65;;;8.50;99.90;;;;;;5096927;28;20028;-68
2022/04/06 03:40:20;;;;;;;23.65;10.32;;;8.60;99.90;;;;;;5099590;28;20058;-67
2022/04/06 03:42:46;;;;;;;22.85;10.18;;;8.60;99.90;;;;;;5092757;28;20458;-68
2022/04/06 03:45:12;;;;;;;21.02;10.07;;;8.50;99.90;;;;;;5092881;28;20024;-67
2022/04/06 03:47:40;;;;;;;21.55;10.45;;;8.60;99.90;;;;;;5096312;28;20144;-67
2022/04/06 03:50:07;;;;;;;23.60;9.88;;;8.50;99.90;;;;;;5098287;28;20036;-67
2022/04/06 03:52:33;;;;;;;22.50;9.65;;;8.50;99.90;;;;;;5094983;28;20464;-68
2022/04/06 03:54:58;;;;;;;19.17;8.57;;;8.50;99.90;;;;;;5088763;28;20031;-67
2022/04/06 03:57:25;;;;;;;20.30;9.23;;;8.50;99.90;;;;;;5092788;28;20027;-67
2022/04/06 03:59:51;;;;;;;21.13;8.45;;;8.50;99.90;;;;;;5086458;28;20043;-68
2022/04/06 04:02:17;;;;;;;18.67;8.63;;;8.50;99.90;;;;;;5086107;28;20606;-68
2022/04/06 04:04:42;;;;;;;19.95;8.60;;;8.50;99.90;;;;;;5089450;28;20065;-68
2022/04/06 04:07:08;;;;;;;15.93;8.63;;;8.50;99.90;;;;;;5088021;28;20024;-68
2022/04/06 04:09:37;;;;;;;20.48;8.95;;;8.50;99.90;;;;;;5092996;28;20224;-68
2022/04/06 04:12:04;;;;;;;18.40;8.75;;;8.50;99.90;;;;;;5086372;28;20444;-68
2022/04/06 04:14:32;;;;;;;20.42;8.98;;;8.40;99.90;;;;;;5086585;28;20252;-68
2022/04/06 04:16:58;;;;;;;21.20;8.65;;;8.40;99.90;;;;;;5083098;28;20024;-68
2022/04/06 04:19:24;;;;;;;20.45;8.90;;;8.40;99.90;;;;;;5084781;28;20401;-67
2022/04/06 04:21:50;;;;;;;21.17;9.60;;;8.40;99.90;;;;;;5089205;28;20160;-68
2022/04/06 04:24:15;;;;;;;23.20;9.20;;;8.50;99.90;;;;;;5084896;28;20431;-68
2022/04/06 04:26:41;;;;;;;18.77;8.63;;;8.50;99.90;;;;;;5089740;28;20023;-68
2022/04/06 04:29:07;;;;;;;17.23;8.85;;;8.40;99.90;;;;;;5084577;28;20052;-68
2022/04/06 04:31:34;;;;;;;17.63;8.70;;;8.40;99.90;;;;;;5085445;28;20024;-67
2022/04/06 04:34:00;;;;;;;19.48;8.10;;;8.40;99.90;;;;;;5093359;28;20050;-68
2022/04/06 04:36:25;;;;;;;20.92;8.63;;;8.40;99.90;;;;;;5093965;28;20467;-68
2022/04/06 04:38:51;;;;;;;13.52;7.88;;;8.40;99.90;;;;;;5102465;28;20035;-67
2022/04/06 04:41:17;;;;;;;19.40;8.13;;;8.40;99.90;;;;;;5100329;28;20035;-67
2022/04/06 04:43:43;;;;;;;18.55;8.60;;;8.40;99.90;;;;;;5084698;28;20482;-68
2022/04/06 04:46:09;;;;;;;17.55;7.47;;;8.40;99.90;;;;;;5090123;28;20123;-67
2022/04/06 04:48:34;;;;;;;20.77;7.57;;;8.40;99.90;;;;;;5086054;28;20020;-67
2022/04/06 04:51:00;;;;;;;20.40;7.60;;;8.40;99.90;;;;;;5087505;28;20317;-68
2022/04/06 04:53:26;;;;;;;22.88;8.48;;;8.40;99.90;;;;;;5091818;28;20413;-68
2022/04/06 04:55:53;;;;;;;21.15;7.97;;;8.40;99.90;;;;;;5091325;28;20039;-68
2022/04/06 04:58:20;;;;;;;20.83;8.23;;;8.40;99.90;;;;;;5095168;28;20034;-67
2022/04/06 05:00:46;;;;;;;18.58;7.90;;;8.40;99.90;;;;;;5091027;28;20055;-67
2022/04/06 05:03:12;;;;;;;20.73;7.13;;;8.40;99.90;;;;;;5084141;28;20032;-67
2022/04/06 05:05:44;;;;;;;20.05;7.10;;;8.40;99.90;;;;;;5084948;28;20039;-67
2022/04/06 05:08:10;;;;;;;15.93;6.50;;;8.40;99.90;;;;;;5087641;28;20028;-67
2022/04/06 05:10:36;;;;;;;17.60;7.25;;;8.40;99.90;;;;;;5089749;28;20024;-67
2022/04/06 05:13:03;;;;;;;19.17;6.97;;;8.40;99.90;;;;;;5093825;28;20448;-67
2022/04/06 05:15:29;;;;;;;15.60;6.25;;;8.40;99.90;;;;;;5088117;28;20031;-67
2022/04/06 05:17:55;;;;;;;13.13;6.50;;;8.30;99.90;;;;;;5092024;28;20243;-67
2022/04/06 05:20:21;;;;;;;17.85;6.32;;;8.40;99.90;;;;;;5093949;28;20046;-67
2022/04/06 05:22:47;;;;;;;15.38;6.00;;;8.40;99.90;;;;;;5088721;28;20460;-67
2022/04/06 05:25:12;;;;;;;18.02;6.53;;;8.30;99.90;;;;;;5097723;28;20028;-67
2022/04/06 05:27:52;;;;;;;16.05;6.57;;;8.40;99.90;;;;;;5087466;28;20024;-68
2022/04/06 05:30:20;;;;;;;15.02;5.47;;;8.30;99.90;;;;;;5095573;28;20039;-67
2022/04/06 05:32:48;;;;;;;16.23;6.53;;;8.40;99.90;;;;;;5089532;28;20027;-67
2022/04/06 05:35:14;;;;;;;12.52;5.78;;;8.40;99.90;;;;;;5094179;28;20024;-67
2022/04/06 05:37:42;;;;;;;15.10;6.57;;;8.40;99.90;;;;;;5090731;28;20420;-68
2022/04/06 05:40:09;;;;;;;12.90;5.35;;;8.40;99.90;;;;;;5092250;28;20087;-67
2022/04/06 05:42:36;;;;;;;17.45;6.00;;;8.40;99.90;;;;;;5093977;28;20476;-68
2022/04/06 05:45:03;;;;;;;14.10;6.07;;;8.40;99.90;;;;;;5093403;28;20065;-67
2022/04/06 05:47:29;;;;;;;13.30;5.80;;;8.40;99.90;;;;;;5103481;28;20035;-72
2022/04/06 05:49:55;;;;;;;16.27;5.90;;;8.50;99.90;;;;;;5097230;28;20055;-73
2022/04/06 05:52:21;;;;;;;16.75;5.50;;;8.40;99.90;;;;;;5099021;28;20058;-73
2022/04/06 05:54:47;;;;;;;14.13;5.93;;;8.40;99.90;;;;;;5090314;28;20484;-73
2022/04/06 05:57:12;;;;;;;13.50;5.90;;;8.50;99.90;;;;;;5093825;28;20024;-72
2022/04/06 05:59:39;;;;;;;15.10;5.78;;;8.50;99.90;;;;;;5092430;28;20468;-73
2022/04/06 06:02:05;;;;;;;14.55;5.45;;;8.50;99.90;;;;;;5092469;28;20424;-73
2022/04/06 06:04:33;;;;;;;15.48;5.53;;;8.50;99.90;;;;;;5089672;28;20036;-73
2022/04/06 06:06:59;;;;;;;14.48;5.28;;;8.50;99.90;;;;;;5087750;28;20511;-73
2022/04/06 06:09:24;;;;;;;15.52;5.80;;;8.50;99.90;;;;;;5099142;28;20032;-72
2022/04/06 06:11:50;;;;;;;14.13;5.53;;;8.50;99.90;;;;;;5088784;28;20020;-72
2022/04/06 06:14:15;;;;;;;13.75;5.60;;;8.60;99.90;;;;;;5089607;28;20555;-73
2022/04/06 06:16:41;;;;;;;15.75;5.40;;;8.50;99.90;;;;;;5100825;28;20019;-73
2022/04/06 06:19:07;;;;;;;12.23;5.63;;;8.50;99.90;;;;;;5098808;28;20051;-72
2022/04/06 06:21:32;;;;;;;14.57;4.90;;;8.60;99.90;;;;;;5088446;28;20020;-73
2022/04/06 06:24:04;;;;;;;10.60;4.80;;;8.60;99.90;;;;;;5094243;28;20393;-73
2022/04/06 06:26:29;;;;;;;16.08;6.07;;;8.60;99.90;;;;;;5098659;28;20121;-73
2022/04/06 06:28:55;;;;;;;21.00;10.93;;;8.60;99.90;;;;;;5096213;28;20499;-73
2022/04/06 06:31:21;;;;;;;17.02;7.70;;;8.60;99.90;;;;;;5088683;28;20027;-74
2022/04/06 06:33:47;;;;;;;12.25;6.80;;;8.60;99.90;;;;;;5085923;28;20028;-73
2022/04/06 06:36:13;;;;;;;19.27;8.15;;;8.60;99.90;;;;;;5091684;28;20507;-73
2022/04/06 06:38:38;;;;;;;11.80;7.60;;;8.60;99.90;;;;;;5092136;28;20016;-73
2022/04/06 06:41:04;;;;;;;13.40;7.63;;;8.60;99.90;;;;;;5088942;28;20078;-73
2022/04/06 06:43:30;;;;;;;13.98;6.80;;;8.70;99.90;;;;;;5087031;28;20024;-73
2022/04/06 06:45:55;;;;;;;15.35;6.70;;;8.70;99.90;;;;;;5083547;28;20075;-73
2022/04/06 06:48:21;;;;;;;10.10;5.32;;;8.70;99.90;;;;;;5089080;28;20565;-73
2022/04/06 06:50:47;;;;;;;11.18;5.20;;;8.70;99.90;;;;;;5100545;28;20026;-73
2022/04/06 06:53:12;;;;;;;11.05;5.22;;;8.70;99.90;;;;;;5086690;28;20451;-73
2022/04/06 06:55:38;;;;;;;13.70;6.07;;;8.70;99.90;;;;;;5088611;28;20411;-72
2022/04/06 06:58:03;;;;;;;12.43;4.68;;;8.80;99.90;;;;;;5093909;28;20023;-73
2022/04/06 07:00:30;;;;;;;9.90;5.13;;;8.90;99.90;;;;;;5087432;28;20550;-73
2022/04/06 07:02:56;;;;;;;13.55;4.30;;;8.90;99.90;;;;;;5096916;28;20035;-72
2022/04/06 07:05:22;;;;;;;12.48;4.47;;;8.90;99.90;;;;;;5087874;28;20023;-73
2022/04/06 07:07:54;;;;;;;13.10;4.40;;;8.90;99.90;;;;;;5105471;28;20047;-72
2022/04/06 07:10:22;;;;;;;10.20;4.30;;;8.90;99.90;;;;;;5087911;28;20179;-72
2022/04/06 07:12:47;;;;;;;9.75;3.67;;;8.90;99.90;;;;;;5087322;28;20016;-72
2022/04/06 07:15:14;;;;;;;8.88;3.97;;;8.90;99.90;;;;;;5083145;28;20096;-72
2022/04/06 07:17:40;;;;;;;11.20;3.85;;;8.90;99.90;;;;;;5096118;28;20039;-72
2022/04/06 07:20:06;;;;;;;9.45;3.85;;;8.90;99.90;;;;;;5094124;28;20028;-73
2022/04/06 07:22:32;;;;;;;9.90;4.32;;;8.90;99.90;;;;;;5086166;28;20671;-73
2022/04/06 07:24:57;;;;;;;8.40;3.47;;;8.90;99.90;;;;;;5085363;28;20020;-73
2022/04/06 07:27:23;;;;;;;9.10;3.80;;;8.90;99.90;;;;;;5087691;28;20407;-71
2022/04/06 07:29:48;;;;;;;10.82;3.72;;;9.00;99.90;;;;;;5095349;28;20086;-72
2022/04/06 07:32:14;;;;;;;8.57;3.40;;;8.90;99.90;;;;;;5098588;28;20039;-73
2022/04/06 07:34:40;;;;;;;7.18;3.60;;;9.00;99.90;;;;;;5095962;28;20506;-73
2022/04/06 07:37:05;;;;;;;6.75;3.55;;;9.10;99.90;;;;;;5085850;28;20036;-73
2022/04/06 07:39:31;;;;;;;8.20;3.60;;;9.10;99.90;;;;;;5089550;28;20036;-73
2022/04/06 07:41:56;;;;;;;8.55;4.10;;;9.10;99.90;;;;;;5104669;28;20492;-73
2022/04/06 07:44:25;;;;;;;9.40;3.60;;;9.10;99.90;;;;;;5091705;28;20055;-74
2022/04/06 07:46:51;;;;;;;12.13;5.53;;;9.10;99.90;;;;;;5103269;28;20168;-72
2022/04/06 07:49:19;;;;;;;10.07;5.03;;;9.10;99.90;;;;;;5092662;28;20115;-72
2022/04/06 07:51:47;;;;;;;8.05;4.20;;;9.10;99.90;;;;;;5091007;28;20024;-70
2022/04/06 07:54:12;;;;;;;4.97;2.53;;;9.10;99.90;;;;;;5091053;28;20035;-69
2022/04/06 07:56:39;;;;;;;8.48;3.03;;;9.10;99.90;;;;;;5085500;28;20024;-70
2022/04/06 07:59:05;;;;;;;11.02;3.05;;;9.10;99.90;;;;;;5099036;28;20157;-70
2022/04/06 08:01:30;;;;;;;6.10;2.90;;;9.10;99.90;;;;;;5096509;28;20027;-71
2022/04/06 08:03:56;;;;;;;7.82;2.90;;;9.10;99.90;;;;;;5089050;28;20032;-70
2022/04/06 08:06:24;;;;;;;10.02;3.10;;;9.10;99.90;;;;;;5093788;28;20031;-70
2022/04/06 08:08:52;;;;;;;7.22;2.90;;;9.10;99.90;;;;;;5098863;28;20020;-70
2022/04/06 08:11:21;;;;;;;7.32;3.25;;;9.10;99.90;;;;;;5097571;28;20051;-70
2022/04/06 08:13:50;;;;;;;7.00;4.00;;;9.20;99.90;;;;;;5086197;28;20273;-70
2022/04/06 08:16:15;;;;;;;8.05;3.50;;;9.20;99.90;;;;;;5097100;28;20035;-70
2022/04/06 08:18:41;;;;;;;8.13;3.65;;;9.30;99.90;;;;;;5096831;28;20471;-70
2022/04/06 08:21:07;;;;;;;9.75;3.40;;;9.30;99.90;;;;;;5095361;28;20051;-70
2022/04/06 08:23:32;;;;;;;6.65;2.85;;;9.30;99.90;;;;;;5086798;28;20028;-71
2022/04/06 08:25:58;;;;;;;11.32;3.15;;;9.40;99.90;;;;;;5089007;28;20032;-70
2022/04/06 08:28:24;;;;;;;7.50;2.90;;;9.40;99.90;;;;;;5093398;28;20183;-70
2022/04/06 08:30:50;;;;;;;9.05;3.20;;;9.40;99.90;;;;;;5101446;28;20504;-70
2022/04/06 08:33:16;;;;;;;7.65;2.97;;;9.40;99.90;;;;;;5098968;28;20016;-70
2022/04/06 08:35:42;;;;;;;6.95;2.92;;;9.50;99.90;;;;;;5087681;28;20384;-71
2022/04/06 08:38:14;;;;;;;5.93;2.70;;;9.40;99.90;;;;;;5103776;28;20112;-71
2022/04/06 08:40:42;;;;;;;7.55;2.60;;;9.40;99.90;;;;;;5090330;28;20557;-71
2022/04/06 08:43:09;;;;;;;9.60;2.90;;;9.40;99.90;;;;;;5094345;28;20032;-70
2022/04/06 08:45:39;;;;;;;7.63;2.42;;;9.40;99.90;;;;;;5098122;28;20395;-69
2022/04/06 08:48:09;;;;;;;9.43;2.30;;;9.40;99.90;;;;;;5099114;28;20295;-70
2022/04/06 08:50:36;;;;;;;3.45;1.85;;;9.40;99.90;;;;;;5095111;28;20078;-68
2022/04/06 08:53:04;;;;;;;6.40;2.20;;;9.30;99.90;;;;;;5101323;28;20021;-69
2022/04/06 08:55:31;;;;;;;3.78;2.10;;;9.30;99.90;;;;;;5100905;28;20531;-68
2022/04/06 08:57:58;;;;;;;4.43;2.53;;;9.30;99.90;;;;;;5101313;28;20829;-68
2022/04/06 09:00:23;;;;;;;7.30;3.03;;;9.30;99.90;;;;;;5098804;28;20035;-68
2022/04/06 09:02:49;;;;;;;10.07;3.05;;;9.30;99.90;;;;;;5097525;28;20028;-69
2022/04/06 09:05:15;;;;;;;10.80;3.15;;;9.30;99.90;;;;;;5088574;28;20028;-69
2022/04/06 09:07:41;;;;;;;7.38;2.45;;;9.40;99.90;;;;;;5090912;28;20088;-69
2022/04/06 09:10:08;;;;;;;9.27;2.30;;;9.40;99.90;;;;;;5088199;28;20095;-70
2022/04/06 09:12:34;;;;;;;8.82;1.98;;;9.40;99.90;;;;;;5103839;28;20039;-69
2022/04/06 09:15:23;;;;;;;4.88;1.90;;;9.50;99.90;;;;;;5096271;28;20235;-69
2022/04/06 09:17:50;;;;;;;8.18;2.40;;;9.60;99.90;;;;;;5086782;28;20165;-69
2022/04/06 09:20:23;;;;;;;8.15;2.17;;;9.70;99.90;;;;;;5087833;28;20035;-69
2022/04/06 09:22:48;;;;;;;5.10;1.92;;;9.70;99.90;;;;;;5090155;28;20028;-69
2022/04/06 09:25:16;;;;;;;6.60;1.88;;;9.80;99.90;;;;;;5093130;28;20038;-69
2022/04/06 09:27:42;;;;;;;6.32;2.05;;;9.90;99.90;;;;;;5096880;28;20031;-69
2022/04/06 09:30:09;;;;;;;5.85;2.05;;;9.90;99.90;;;;;;5096601;28;20576;-69
2022/04/06 09:32:34;;;;;;;8.50;2.20;;;10.00;99.90;;;;;;5088397;28;20032;-70
2022/04/06 09:35:00;;;;;;;4.30;1.90;;;10.10;99.90;;;;;;5095532;28;20028;-70
2022/04/06 09:37:30;;;;;;;7.55;2.10;;;10.10;99.90;;;;;;5095581;28;20254;-70
2022/04/06 09:40:06;;;;;;;6.75;2.15;;;10.10;99.90;;;;;;5100064;28;20032;-70
2022/04/06 09:42:31;;;;;;;5.80;1.98;;;10.20;99.90;;;;;;5094339;28;20035;-70
2022/04/06 09:48:01;;;;;;;7.55;2.55;;;10.20;99.90;;;;;;5092701;28;20078;-70
2022/04/06 09:50:27;;;;;;;11.77;2.53;;;10.30;99.90;;;;;;5088892;28;20020;-69
2022/04/06 09:52:59;;;;;;;7.43;2.28;;;10.50;99.90;;;;;;5078764;28;20465;-70
2022/04/06 09:55:24;;;;;;;6.15;1.70;;;10.60;99.90;;;;;;5094765;28;20031;-71
2022/04/06 09:57:55;;;;;;;6.70;2.25;;;10.70;99.90;;;;;;5093602;28;20088;-70
2022/04/06 10:00:27;;;;;;;8.02;2.05;;;10.80;99.90;;;;;;5092065;28;20040;-70
2022/04/06 10:03:05;;;;;;;7.00;1.85;;;10.80;99.90;;;;;;5091937;28;20028;-71
2022/04/06 10:05:33;;;;;;;9.02;1.90;;;10.70;99.90;;;;;;5083458;28;20388;-70
2022/04/06 10:08:04;;;;;;;4.15;1.70;;;10.70;99.90;;;;;;5086903;28;20035;-69
2022/04/06 10:10:31;;;;;;;5.32;1.67;;;10.70;99.90;;;;;;5092318;28;20035;-70
2022/04/06 10:12:57;;;;;;;5.95;1.85;;;10.70;99.90;;;;;;5096161;28;20418;-70
2022/04/06 10:15:25;;;;;;;8.73;1.52;;;10.70;99.90;;;;;;5088743;28;20035;-70
2022/04/06 10:17:50;;;;;;;9.00;1.80;;;10.70;99.90;;;;;;5094008;28;20335;-70
2022/04/06 10:20:30;;;;;;;5.25;1.42;;;10.70;99.90;;;;;;5088154;28;20039;-70
2022/04/06 10:23:26;;;;;;;6.20;1.65;;;10.60;99.90;;;;;;5092620;28;20031;-69
2022/04/06 10:26:06;;;;;;;3.40;1.00;;;10.60;99.90;;;;;;5086543;28;20111;-70
2022/04/06 10:28:33;;;;;;;5.60;1.48;;;10.70;99.90;;;;;;5085295;28;20535;-70
2022/04/06 10:31:19;;;;;;;5.05;1.98;;;10.60;99.90;;;;;;5096203;28;20066;-70
2022/04/06 10:33:46;;;;;;;5.10;1.20;;;10.60;99.90;;;;;;5085092;28;20016;-70
2022/04/06 10:36:27;;;;;;;5.03;1.40;;;10.70;99.90;;;;;;5097051;28;20382;-70
2022/04/06 10:39:05;;;;;;;7.45;1.45;;;10.70;99.90;;;;;;5088148;28;20060;-70
2022/04/06 10:41:32;;;;;;;5.70;1.50;;;10.80;99.90;;;;;;5092439;28;20434;-70
2022/04/06 10:43:58;;;;;;;3.47;1.40;;;10.90;99.90;;;;;;5086506;28;20404;-70
2022/04/06 10:46:40;;;;;;;6.53;1.45;;;10.90;99.90;;;;;;5089742;28;20028;-70
2022/04/06 10:49:06;;;;;;;5.07;1.40;;;11.00;99.90;;;;;;5085359;28;20043;-71
2022/04/06 10:51:37;;;;;;;6.60;1.42;;;11.20;99.90;;;;;;5090731;28;20058;-71
2022/04/06 10:54:12;;;;;;;11.48;2.60;;;11.30;99.90;;;;;;5086831;28;20038;-69
2022/04/06 10:56:49;;;;;;;6.80;2.10;;;11.30;99.90;;;;;;5089170;28;20028;-70
2022/04/06 10:59:23;;;;;;;5.57;1.45;;;;;;;;;;5084937;28;20439;-71
2022/04/06 11:02:09;;;;;;;6.70;1.90;;;11.30;99.90;;;;;;5093127;28;20024;-71
2022/04/06 11:04:40;;;;;;;8.07;2.00;;;11.30;99.90;;;;;;5090253;28;20024;-71
2022/04/06 11:07:05;;;;;;;3.88;1.20;;;11.40;99.90;;;;;;5085510;28;20112;-71
2022/04/06 11:12:28;;;;;;;6.63;1.20;;;11.50;99.90;;;;;;5086565;28;20399;-71
2022/04/06 11:14:59;;;;;;;3.50;1.40;;;11.40;99.90;;;;;;5086832;28;20440;-71
2022/04/06 11:17:44;;;;;;;5.72;1.42;;;11.40;99.90;;;;;;5091098;28;20041;-71
2022/04/06 11:20:13;;;;;;;5.88;1.42;;;11.40;99.90;;;;;;5086196;28;20033;-71
2022/04/06 11:22:43;;;;;;;5.07;2.70;;;11.50;99.90;;;;;;5085625;28;20034;-71
2022/04/06 11:25:12;;;;;;;4.03;1.20;;;11.70;99.90;;;;;;5092314;28;20063;-71
2022/04/06 11:27:39;;;;;;;4.45;1.50;;;11.80;99.90;;;;;;5085633;28;20060;-71
2022/04/06 11:30:14;;;;;;;3.38;1.30;;;11.80;99.90;;;;;;5085543;28;20048;-71
2022/04/06 11:32:43;;;;;;;5.28;1.30;;;11.90;99.90;;;;;;5092355;28;20020;-71
2022/04/06 11:35:13;;;;;;;4.05;1.35;;;11.90;99.90;;;;;;5099797;28;20391;-72
2022/04/06 11:37:43;;;;;;;3.55;1.35;;;11.90;99.90;;;;;;5105627;28;20379;-71
2022/04/06 11:40:10;;;;;;;5.32;1.80;;;11.90;99.90;;;;;;5090396;28;20156;-71
2022/04/06 11:42:36;;;;;;;4.20;1.35;;;12.00;99.90;;;;;;5105766;28;20031;-71
2022/04/06 11:45:02;;;;;;;3.35;1.10;;;12.10;99.90;;;;;;5104573;28;20048;-72
2022/04/06 11:47:37;;;;;;;6.82;1.88;;;12.20;99.90;;;;;;5094951;28;20107;-71
2022/04/06 11:50:06;;;;;;;4.22;1.45;;;12.10;99.90;;;;;;5094038;28;20514;-72
2022/04/06 11:52:34;;;;;;;5.68;1.15;;;12.10;99.90;;;;;;5090821;28;20043;-71
2022/04/06 11:55:00;;;;;;;4.13;1.48;;;12.00;99.90;;;;;;5086190;28;20028;-71
2022/04/06 11:57:42;;;;;;;6.35;1.45;;;12.00;99.90;;;;;;5106150;28;20468;-72
2022/04/06 12:00:11;;;;;;;3.03;1.17;;;12.00;99.90;;;;;;5085907;28;20408;-71
2022/04/06 12:02:46;;;;;;;6.13;1.50;;;12.00;99.90;;;;;;5093376;28;20420;-67
2022/04/06 12:05:12;;;;;;;2.22;1.10;;;11.90;99.90;;;;;;5093711;28;20357;-67
2022/04/06 12:07:38;;;;;;;3.22;1.25;;;12.00;99.90;;;;;;5093742;28;20122;-67
2022/04/06 12:10:04;;;;;;;5.00;1.33;;;12.00;99.90;;;;;;5091810;28;20024;-67
2022/04/06 12:12:30;;;;;;;5.47;1.30;;;12.10;99.90;;;;;;5090079;28;20039;-67
2022/04/06 12:14:56;;;;;;;5.78;1.70;;;12.10;99.90;;;;;;5088371;28;20035;-67
2022/04/06 12:17:22;;;;;;;3.63;1.48;;;12.10;99.90;;;;;;5091173;28;20019;-67
2022/04/06 12:19:48;;;;;;;5.82;1.58;;;12.20;99.90;;;;;;5097852;28;20028;-67
2022/04/06 12:22:14;;;;;;;6.40;1.98;;;12.20;99.90;;;;;;5091363;28;20028;-67
2022/04/06 12:24:43;;;;;;;2.97;1.27;;;12.20;99.90;;;;;;5088958;28;20032;-67
2022/04/06 12:27:09;;;;;;;2.58;1.73;;;12.20;99.90;;;;;;5088614;28;20123;-67
2022/04/06 12:29:39;;;;;;;5.85;1.77;;;12.30;99.90;;;;;;5094545;28;20080;-67
2022/04/06 12:32:06;;;;;;;6.10;1.50;;;12.30;99.90;;;;;;5096942;28;20059;-67
2022/04/06 12:34:37;;;;;;;6.47;1.60;;;12.30;99.90;;;;;;5087961;28;20087;-67
2022/04/06 12:39:54;;;;;;;4.72;1.30;;;12.10;99.90;;;;;;5105998;28;20042;-67
2022/04/06 12:42:21;;;;;;;5.15;1.30;;;12.10;99.90;;;;;;5092005;28;20028;-67
2022/04/06 12:44:58;;;;;;;5.90;1.75;;;12.00;99.90;;;;;;5089152;28;20047;-67
2022/04/06 12:47:24;;;;;;;5.85;1.50;;;12.00;99.90;;;;;;5088411;28;20058;-67
2022/04/06 12:49:50;;;;;;;3.78;1.45;;;12.20;99.90;;;;;;5095610;28;20039;-67
2022/04/06 12:52:23;;;;;;;5.53;1.65;;;12.50;99.90;;;;;;5098342;28;20028;-68
2022/04/06 12:54:52;;;;;;;5.85;1.55;;;12.50;99.90;;;;;;5091712;28;20026;-67
2022/04/06 12:57:20;;;;;;;3.60;1.40;;;12.60;99.90;;;;;;5102866;28;20167;-68
2022/04/06 12:59:53;;;;;;;4.82;1.60;;;12.60;99.90;;;;;;5092826;28;20028;-68